createdAt,value
2018-07-25T00:01:13.510Z,92.30
2018-07-25T00:03:41.620Z,92.30
2018-07-25T00:06:10.129Z,92.30
2018-07-25T00:08:39.628Z,92.30
2018-07-25T00:11:08.624Z,92.40
2018-07-25T00:13:36.796Z,92.90
2018-07-25T00:16:04.956Z,93.10
2018-07-25T00:18:33.888Z,93.40
2018-07-25T00:21:02.726Z,93.50
2018-07-25T00:23:30.884Z,93.90
2018-07-25T00:25:59.408Z,94.10
2018-07-25T00:28:27.859Z,94.50
2018-07-25T00:30:56.932Z,94.90
2018-07-25T00:33:25.804Z,95.20
2018-07-25T00:35:53.932Z,95.70
2018-07-25T00:38:22.156Z,96.10
2018-07-25T00:40:50.315Z,96.80
2018-07-25T00:43:18.627Z,97.40
2018-07-25T00:45:46.808Z,97.80
2018-07-25T00:48:14.992Z,98.00
2018-07-25T00:50:43.151Z,97.80
2018-07-25T00:53:11.968Z,98.10
2018-07-25T00:55:40.420Z,98.30
2018-07-25T00:58:08.841Z,99.00
2018-07-25T01:00:37.932Z,99.40
2018-07-25T01:03:06.088Z,99.80
2018-07-25T01:05:35.389Z,99.90
2018-07-25T01:08:05.332Z,99.80
2018-07-25T01:10:34.480Z,99.80
2018-07-25T01:13:02.622Z,99.90
2018-07-25T01:15:32.073Z,99.90
2018-07-25T01:18:00.840Z,99.90
2018-07-25T01:20:29.049Z,99.90
2018-07-25T01:22:58.772Z,99.90
2018-07-25T01:25:26.920Z,99.90
2018-07-25T01:27:55.399Z,99.80
2018-07-25T01:30:24.140Z,99.10
2018-07-25T01:32:52.368Z,99.20
2018-07-25T01:35:21.228Z,99.80
2018-07-25T01:37:49.380Z,99.80
2018-07-25T01:40:17.585Z,99.80
2018-07-25T01:42:46.453Z,99.90
2018-07-25T01:45:15.044Z,99.90
2018-07-25T01:47:49.390Z,99.90
2018-07-25T01:50:17.568Z,99.90
2018-07-25T01:52:46.388Z,99.90
2018-07-25T01:55:14.531Z,99.90
2018-07-25T01:57:43.476Z,99.90
2018-07-25T02:00:11.604Z,99.90
2018-07-25T02:02:39.746Z,99.90
2018-07-25T02:05:08.462Z,99.90
2018-07-25T02:07:36.576Z,99.90
2018-07-25T02:10:06.604Z,99.90
2018-07-25T02:12:35.152Z,99.90
2018-07-25T02:15:03.988Z,99.90
2018-07-25T02:17:32.694Z,99.90
2018-07-25T02:20:00.823Z,99.90
2018-07-25T02:22:29.276Z,99.90
2018-07-25T02:24:58.372Z,99.90
2018-07-25T02:27:26.851Z,99.90
2018-07-25T02:29:55.056Z,99.90
2018-07-25T02:32:24.405Z,99.90
2018-07-25T02:34:53.214Z,99.90
2018-07-25T02:37:21.392Z,99.90
2018-07-25T02:39:49.560Z,99.90
2018-07-25T02:42:17.746Z,99.90
2018-07-25T02:44:47.361Z,99.90
2018-07-25T02:47:17.009Z,99.90
2018-07-25T02:49:46.228Z,99.90
2018-07-25T02:52:14.381Z,99.90
2018-07-25T02:54:42.892Z,99.90
2018-07-25T02:57:11.057Z,99.90
2018-07-25T02:59:39.248Z,99.90
2018-07-25T03:02:07.429Z,99.90
2018-07-25T03:04:35.589Z,99.90
2018-07-25T03:07:04.280Z,99.90
2018-07-25T03:09:32.444Z,99.90
2018-07-25T03:12:00.624Z,99.90
2018-07-25T03:14:29.272Z,99.90
2018-07-25T03:16:57.740Z,99.90
2018-07-25T03:19:27.342Z,99.90
2018-07-25T03:21:56.692Z,99.90
2018-07-25T03:24:25.389Z,99.90
2018-07-25T03:26:53.564Z,99.90
2018-07-25T03:29:22.492Z,99.90
2018-07-25T03:31:50.636Z,99.90
2018-07-25T03:34:20.204Z,99.90
2018-07-25T03:36:48.371Z,99.90
2018-07-25T03:39:16.516Z,99.90
2018-07-25T03:41:44.652Z,99.90
2018-07-25T03:44:12.787Z,99.90
2018-07-25T03:46:41.012Z,99.90
2018-07-25T03:49:09.225Z,99.90
2018-07-25T03:51:37.399Z,99.90
2018-07-25T03:54:06.572Z,99.90
2018-07-25T03:56:37.242Z,99.90
2018-07-25T03:59:06.276Z,99.90
2018-07-25T04:01:38.056Z,99.90
2018-07-25T04:04:06.204Z,99.90
2018-07-25T04:06:34.344Z,99.90
2018-07-25T04:09:03.313Z,99.90
2018-07-25T04:11:32.424Z,99.90
2018-07-25T04:14:00.584Z,99.90
2018-07-25T04:16:29.333Z,99.90
2018-07-25T04:19:03.996Z,99.90
2018-07-25T04:21:32.895Z,99.90
2018-07-25T04:26:30.264Z,99.90
2018-07-25T04:28:58.913Z,99.90
2018-07-25T04:31:27.219Z,99.90
2018-07-25T04:33:55.437Z,99.90
2018-07-25T04:36:25.657Z,99.90
2018-07-25T04:38:53.972Z,99.90
2018-07-25T04:41:22.973Z,99.90
2018-07-25T04:43:51.164Z,99.90
2018-07-25T04:46:19.764Z,99.90
2018-07-25T04:48:47.789Z,99.90
2018-07-25T04:51:15.932Z,99.90
2018-07-25T04:53:44.104Z,99.90
2018-07-25T04:56:12.425Z,99.90
2018-07-25T04:58:41.220Z,99.90
2018-07-25T05:01:09.959Z,99.90
2018-07-25T05:03:38.097Z,99.90
2018-07-25T05:06:06.319Z,99.90
2018-07-25T05:08:35.009Z,99.90
2018-07-25T05:11:07.465Z,99.90
2018-07-25T05:13:35.636Z,99.90
2018-07-25T05:16:04.214Z,99.90
2018-07-25T05:18:32.760Z,99.90
2018-07-25T05:21:00.949Z,99.90
2018-07-25T05:25:58.495Z,99.90
2018-07-25T05:28:27.515Z,99.90
2018-07-25T05:30:55.679Z,99.90
2018-07-25T05:33:23.844Z,99.90
2018-07-25T05:35:52.013Z,99.90
2018-07-25T05:38:20.805Z,99.90
2018-07-25T05:40:48.944Z,99.90
2018-07-25T05:43:17.848Z,99.90
2018-07-25T05:45:46.009Z,99.90
2018-07-25T05:48:14.116Z,99.90
2018-07-25T05:50:42.292Z,99.90
2018-07-25T05:53:10.460Z,99.90
2018-07-25T05:55:39.048Z,99.90
2018-07-25T05:58:08.227Z,99.90
2018-07-25T06:00:36.393Z,99.90
2018-07-25T06:03:06.649Z,99.90
2018-07-25T06:05:34.761Z,99.90
2018-07-25T06:08:02.902Z,99.90
2018-07-25T06:10:32.360Z,99.90
2018-07-25T06:13:01.565Z,99.90
2018-07-25T06:15:30.212Z,99.90
2018-07-25T06:17:58.379Z,99.90
2018-07-25T06:20:26.657Z,99.90
2018-07-25T06:22:54.772Z,99.90
2018-07-25T06:25:22.924Z,99.90
2018-07-25T06:27:51.060Z,98.60
2018-07-25T06:30:19.206Z,97.30
2018-07-25T06:32:47.385Z,97.00
2018-07-25T06:35:16.196Z,95.40
2018-07-25T06:37:44.421Z,94.10
2018-07-25T06:40:13.236Z,92.80
2018-07-25T06:42:42.187Z,93.90
2018-07-25T06:45:10.353Z,93.60
2018-07-25T06:47:38.885Z,92.90
2018-07-25T06:50:08.350Z,90.90
2018-07-25T06:52:36.757Z,90.00
2018-07-25T06:55:05.266Z,87.50
2018-07-25T06:57:33.808Z,86.60
2018-07-25T07:00:01.972Z,87.70
2018-07-25T07:02:30.538Z,86.90
2018-07-25T07:05:00.422Z,86.40
2018-07-25T07:07:28.588Z,85.30
2018-07-25T07:09:57.928Z,85.00
2018-07-25T07:12:26.109Z,84.60
2018-07-25T07:14:54.477Z,83.80
2018-07-25T07:17:23.020Z,82.20
2018-07-25T07:19:51.931Z,82.00
2018-07-25T07:22:20.460Z,80.60
2018-07-25T07:24:48.608Z,79.50
2018-07-25T07:27:18.100Z,79.70
2018-07-25T07:29:46.427Z,79.30
2018-07-25T07:32:16.156Z,78.70
2018-07-25T07:34:44.684Z,76.00
2018-07-25T07:37:13.171Z,76.20
2018-07-25T07:39:41.280Z,75.40
2018-07-25T07:42:10.192Z,73.40
2018-07-25T07:44:39.021Z,71.50
2018-07-25T07:47:07.190Z,71.00
2018-07-25T07:49:35.777Z,68.60
2018-07-25T07:52:03.932Z,68.00
2018-07-25T07:54:32.451Z,66.50
2018-07-25T07:57:00.748Z,66.10
2018-07-25T07:59:29.244Z,65.50
2018-07-25T08:01:57.354Z,65.40
2018-07-25T08:04:26.500Z,65.00
2018-07-25T08:06:55.348Z,64.20
2018-07-25T08:09:23.491Z,62.60
2018-07-25T08:11:51.641Z,62.90
2018-07-25T08:14:20.460Z,62.80
2018-07-25T08:16:50.412Z,63.10
2018-07-25T08:19:18.883Z,62.70
2018-07-25T08:21:49.180Z,62.20
2018-07-25T08:24:17.969Z,62.30
2018-07-25T08:26:46.088Z,61.70
2018-07-25T08:29:14.267Z,61.70
2018-07-25T08:31:42.431Z,61.80
2018-07-25T08:34:10.594Z,59.50
2018-07-25T08:36:38.749Z,59.80
2018-07-25T08:39:08.373Z,59.20
2018-07-25T08:41:36.682Z,58.60
2018-07-25T08:44:05.947Z,57.60
2018-07-25T08:46:34.986Z,57.70
2018-07-25T08:49:03.125Z,58.60
2018-07-25T08:51:31.845Z,59.60
2018-07-25T08:54:00.012Z,58.80
2018-07-25T08:56:28.177Z,59.00
2018-07-25T08:58:57.383Z,57.50
2018-07-25T09:01:26.148Z,57.50
2018-07-25T09:03:54.936Z,57.30
2018-07-25T09:06:23.471Z,58.10
2018-07-25T09:08:52.513Z,57.20
2018-07-25T09:11:26.180Z,57.50
2018-07-25T09:13:54.376Z,56.40
2018-07-25T09:16:22.542Z,55.80
2018-07-25T09:18:50.692Z,56.40
2018-07-25T09:21:19.185Z,55.40
2018-07-25T09:23:47.716Z,56.20
2018-07-25T09:26:16.767Z,55.60
2018-07-25T09:28:45.688Z,54.50
2018-07-25T09:31:14.451Z,54.60
2018-07-25T09:33:42.667Z,54.20
2018-07-25T09:36:10.761Z,54.20
2018-07-25T09:38:39.828Z,54.00
2018-07-25T09:41:08.064Z,53.80
2018-07-25T09:43:36.577Z,54.00
2018-07-25T09:46:04.784Z,52.40
2018-07-25T09:48:33.593Z,53.20
2018-07-25T09:51:02.732Z,53.60
2018-07-25T09:53:31.496Z,53.50
2018-07-25T09:56:00.750Z,53.00
2018-07-25T09:58:28.861Z,53.60
2018-07-25T10:00:58.426Z,53.80
2018-07-25T10:03:26.437Z,54.50
2018-07-25T10:05:54.608Z,53.70
2018-07-25T10:08:22.949Z,54.00
2018-07-25T10:10:51.088Z,54.20
2018-07-25T10:13:19.260Z,54.80
2018-07-25T10:15:47.469Z,55.30
2018-07-25T10:18:15.648Z,55.50
2018-07-25T10:20:44.400Z,55.80
2018-07-25T10:23:12.941Z,56.00
2018-07-25T10:25:42.025Z,56.40
2018-07-25T10:28:10.174Z,56.10
2018-07-25T10:30:38.391Z,56.60
2018-07-25T10:33:08.005Z,57.20
2018-07-25T10:35:36.189Z,57.00
2018-07-25T10:38:04.381Z,57.70
2018-07-25T10:40:34.504Z,58.50
2018-07-25T10:43:03.511Z,57.50
2018-07-25T10:45:31.668Z,57.10
2018-07-25T10:47:59.812Z,57.00
2018-07-25T10:50:28.300Z,56.10
2018-07-25T10:52:57.423Z,55.70
2018-07-25T10:55:26.856Z,55.30
2018-07-25T10:57:55.375Z,54.70
2018-07-25T11:00:23.484Z,54.30
2018-07-25T11:02:51.696Z,53.20
2018-07-25T11:05:20.846Z,53.00
2018-07-25T11:07:50.271Z,53.70
2018-07-25T11:10:18.700Z,55.20
2018-07-25T11:12:46.836Z,56.10
2018-07-25T11:17:43.305Z,56.70
2018-07-25T11:20:11.579Z,56.90
2018-07-25T11:22:39.949Z,56.30
2018-07-25T11:27:36.041Z,56.40
2018-07-25T11:30:04.664Z,56.10
2018-07-25T11:32:33.726Z,56.20
2018-07-25T11:35:01.850Z,57.10
2018-07-25T11:37:29.987Z,57.20
2018-07-25T11:39:58.117Z,57.90
2018-07-25T11:42:27.239Z,58.10
2018-07-25T11:44:55.804Z,58.70
2018-07-25T11:47:23.976Z,59.30
2018-07-25T11:49:52.771Z,59.80
2018-07-25T11:52:21.961Z,60.10
2018-07-25T11:54:50.112Z,60.30
2018-07-25T11:57:18.268Z,60.70
2018-07-25T11:59:46.383Z,60.70
2018-07-25T12:02:15.508Z,60.90
2018-07-25T12:04:44.058Z,61.40
2018-07-25T12:07:12.196Z,61.50
2018-07-25T12:09:40.342Z,61.00
2018-07-25T12:12:08.504Z,60.50
2018-07-25T12:14:37.380Z,60.30
2018-07-25T12:17:05.600Z,59.70
2018-07-25T12:19:33.768Z,59.10
2018-07-25T12:22:01.920Z,57.90
2018-07-25T12:24:30.089Z,57.70
2018-07-25T12:27:00.228Z,57.40
2018-07-25T12:29:28.444Z,57.70
2018-07-25T12:31:57.229Z,56.40
2018-07-25T12:34:25.766Z,56.30
2018-07-25T12:36:53.956Z,55.70
2018-07-25T12:39:22.112Z,54.70
2018-07-25T12:41:50.243Z,53.90
2018-07-25T12:44:18.715Z,53.50
2018-07-25T12:46:47.744Z,53.00
2018-07-25T12:49:16.710Z,53.20
2018-07-25T12:51:44.847Z,53.20
2018-07-25T12:54:13.031Z,52.80
2018-07-25T12:56:41.539Z,52.60
2018-07-25T12:59:09.708Z,53.00
2018-07-25T13:01:38.917Z,52.60
2018-07-25T13:04:07.047Z,53.40
2018-07-25T13:06:35.204Z,53.50
2018-07-25T13:09:07.468Z,53.90
2018-07-25T13:11:37.964Z,54.10
2018-07-25T13:14:06.332Z,52.50
2018-07-25T13:16:35.903Z,51.80
2018-07-25T13:19:04.156Z,52.60
2018-07-25T13:21:32.311Z,52.50
2018-07-25T13:24:00.540Z,52.60
2018-07-25T13:26:28.716Z,53.00
2018-07-25T13:28:57.853Z,52.60
2018-07-25T13:31:27.055Z,52.50
2018-07-25T13:33:55.419Z,52.90
2018-07-25T13:36:23.902Z,52.50
2018-07-25T13:38:52.068Z,52.20
2018-07-25T13:41:21.736Z,52.20
2018-07-25T13:43:50.152Z,51.70
2018-07-25T13:46:19.088Z,52.30
2018-07-25T13:48:47.905Z,52.30
2018-07-25T13:51:16.036Z,52.80
2018-07-25T13:53:44.221Z,53.00
2018-07-25T13:56:13.258Z,53.40
2018-07-25T13:58:41.389Z,54.10
2018-07-25T14:01:10.267Z,54.20
2018-07-25T14:03:38.448Z,55.30
2018-07-25T14:06:06.978Z,56.00
2018-07-25T14:08:35.140Z,57.30
2018-07-25T14:11:03.884Z,57.90
2018-07-25T14:13:32.704Z,57.50
2018-07-25T14:18:30.048Z,58.50
2018-07-25T14:20:59.213Z,57.90
2018-07-25T14:23:28.402Z,57.40
2018-07-25T14:25:56.516Z,58.80
2018-07-25T14:28:25.860Z,58.30
2018-07-25T14:30:53.984Z,57.80
2018-07-25T14:33:22.149Z,57.10
2018-07-25T14:35:50.264Z,57.60
2018-07-25T14:38:18.431Z,57.00
2018-07-25T14:40:47.339Z,56.70
2018-07-25T14:43:16.196Z,55.90
2018-07-25T14:45:44.356Z,58.30
2018-07-25T14:48:12.916Z,59.90
2018-07-25T14:50:41.091Z,63.50
2018-07-25T14:53:09.262Z,64.20
2018-07-25T14:55:38.652Z,64.40
2018-07-25T14:58:06.819Z,64.80
2018-07-25T15:00:34.968Z,65.30
2018-07-25T15:03:04.017Z,65.90
2018-07-25T15:05:32.160Z,67.20
2018-07-25T15:08:01.115Z,68.90
2018-07-25T15:10:29.263Z,69.60
2018-07-25T15:12:59.405Z,71.80
2018-07-25T15:15:30.609Z,73.10
2018-07-25T15:17:59.191Z,75.30
2018-07-25T15:20:27.656Z,76.20
2018-07-25T15:22:55.852Z,76.70
2018-07-25T15:25:25.428Z,77.50
2018-07-25T15:27:54.499Z,76.10
2018-07-25T15:30:22.640Z,74.90
2018-07-25T15:32:52.688Z,74.80
2018-07-25T15:35:21.830Z,76.30
2018-07-25T15:37:51.396Z,79.50
2018-07-25T15:40:19.560Z,79.30
2018-07-25T15:42:48.009Z,81.20
2018-07-25T15:45:16.476Z,82.00
2018-07-25T15:47:44.984Z,81.90
2018-07-25T15:50:13.170Z,82.70
2018-07-25T15:52:42.289Z,81.50
2018-07-25T15:55:10.785Z,82.00
2018-07-25T15:57:38.928Z,82.20
2018-07-25T16:00:07.783Z,82.00
2018-07-25T16:02:36.032Z,82.80
2018-07-25T16:05:05.660Z,81.60
2018-07-25T16:07:34.768Z,81.30
2018-07-25T16:10:02.954Z,81.40
2018-07-25T16:12:31.449Z,80.00
2018-07-25T16:14:59.968Z,75.50
2018-07-25T16:17:28.104Z,69.60
2018-07-25T16:19:56.308Z,65.30
2018-07-25T16:22:25.301Z,62.10
2018-07-25T16:24:53.547Z,62.90
2018-07-25T16:27:23.310Z,58.20
2018-07-25T16:29:51.796Z,63.00
2018-07-25T16:32:19.979Z,64.10
2018-07-25T16:34:50.116Z,65.50
2018-07-25T16:37:18.975Z,65.60
2018-07-25T16:39:48.108Z,64.70
2018-07-25T16:42:20.645Z,65.30
2018-07-25T16:44:49.132Z,65.00
2018-07-25T16:47:18.846Z,64.30
2018-07-25T16:49:48.552Z,64.20
2018-07-25T16:52:18.530Z,65.10
2018-07-25T16:54:47.208Z,63.90
2018-07-25T16:57:17.267Z,63.00
2018-07-25T16:59:46.236Z,63.40
2018-07-25T17:02:14.381Z,65.20
2018-07-25T17:04:42.859Z,66.20
2018-07-25T17:07:11.340Z,66.40
2018-07-25T17:09:40.041Z,62.50
2018-07-25T17:12:08.176Z,60.00
2018-07-25T17:14:38.047Z,60.70
2018-07-25T17:17:07.578Z,58.50
2018-07-25T17:19:35.753Z,58.50
2018-07-25T17:22:04.932Z,58.50
2018-07-25T17:24:33.348Z,56.70
2018-07-25T17:27:01.512Z,57.20
2018-07-25T17:29:30.339Z,56.60
2018-07-25T17:31:58.735Z,56.00
2018-07-25T17:34:26.875Z,56.00
2018-07-25T17:36:55.679Z,56.10
2018-07-25T17:39:24.376Z,56.00
2018-07-25T17:41:53.319Z,56.00
2018-07-25T17:44:22.365Z,55.50
2018-07-25T17:46:51.021Z,55.80
2018-07-25T17:49:21.151Z,56.40
2018-07-25T17:51:49.888Z,57.00
2018-07-25T17:54:18.567Z,57.60
2018-07-25T17:56:47.065Z,58.00
2018-07-25T17:59:15.644Z,58.70
2018-07-25T18:01:43.921Z,59.40
2018-07-25T18:04:12.548Z,61.30
2018-07-25T18:06:41.020Z,62.30
2018-07-25T18:09:10.243Z,62.10
2018-07-25T18:11:38.457Z,64.40
2018-07-25T18:14:13.224Z,67.10
2018-07-25T18:16:42.716Z,69.20
2018-07-25T18:19:12.536Z,70.70
2018-07-25T18:21:41.204Z,71.70
2018-07-25T18:24:09.938Z,72.80
2018-07-25T18:29:06.895Z,75.30
2018-07-25T18:31:35.337Z,75.90
2018-07-25T18:34:04.387Z,76.40
2018-07-25T18:36:33.429Z,76.20
2018-07-25T18:39:01.783Z,77.80
2018-07-25T18:41:30.004Z,76.90
2018-07-25T18:43:58.176Z,77.00
2018-07-25T18:46:36.114Z,76.80
2018-07-25T18:49:05.525Z,76.30
2018-07-25T18:51:33.713Z,75.90
2018-07-25T18:54:02.608Z,77.40
2018-07-25T18:56:31.476Z,77.60
2018-07-25T18:58:59.651Z,78.50
2018-07-25T19:01:27.847Z,77.50
2018-07-25T19:03:56.009Z,76.00
2018-07-25T19:06:24.636Z,75.60
2018-07-25T19:08:52.784Z,74.20
2018-07-25T19:11:21.472Z,73.70
2018-07-25T19:13:55.676Z,73.30
2018-07-25T19:16:23.876Z,73.60
2018-07-25T19:18:52.054Z,73.40
2018-07-25T19:21:20.888Z,74.40
2018-07-25T19:23:49.927Z,76.20
2018-07-25T19:26:19.818Z,76.80
2018-07-25T19:31:21.680Z,77.90
2018-07-25T19:33:49.872Z,76.70
2018-07-25T19:36:18.323Z,76.80
2018-07-25T19:38:46.432Z,78.20
2018-07-25T19:41:15.633Z,77.90
2018-07-25T19:43:44.185Z,77.90
2018-07-25T19:46:12.368Z,77.30
2018-07-25T19:48:40.861Z,77.10
2018-07-25T19:51:09.026Z,76.20
2018-07-25T19:53:37.274Z,75.70
2018-07-25T19:56:06.400Z,76.70
2018-07-25T19:58:35.472Z,77.40
2018-07-25T20:01:04.315Z,78.00
2018-07-25T20:03:32.780Z,80.40
2018-07-25T20:06:01.762Z,80.60
2018-07-25T20:08:30.268Z,80.80
2018-07-25T20:10:59.560Z,80.00
2018-07-25T20:13:30.908Z,80.00
2018-07-25T20:16:06.044Z,80.20
2018-07-25T20:18:34.196Z,79.90
2018-07-25T20:21:03.998Z,77.20
2018-07-25T20:23:32.100Z,76.50
2018-07-25T20:26:01.636Z,76.30
2018-07-25T20:28:29.764Z,77.50
2018-07-25T20:30:57.965Z,77.90
2018-07-25T20:33:26.208Z,78.50
2018-07-25T20:35:54.808Z,79.30
2018-07-25T20:38:22.928Z,80.10
2018-07-25T20:40:51.068Z,80.70
2018-07-25T20:43:19.226Z,80.70
2018-07-25T20:45:47.367Z,80.90
2018-07-25T20:48:15.528Z,81.10
2018-07-25T20:50:43.664Z,81.30
2018-07-25T20:53:11.849Z,81.80
2018-07-25T20:55:40.028Z,82.30
2018-07-25T20:58:08.164Z,82.50
2018-07-25T21:00:36.639Z,82.80
2018-07-25T21:03:07.220Z,82.90
2018-07-25T21:05:35.672Z,82.90
2018-07-25T21:08:03.823Z,84.20
2018-07-25T21:10:32.211Z,84.10
2018-07-25T21:13:00.987Z,84.90
2018-07-25T21:15:29.103Z,84.80
2018-07-25T21:17:57.601Z,85.00
2018-07-25T21:20:25.733Z,85.60
2018-07-25T21:22:54.806Z,85.50
2018-07-25T21:25:23.211Z,85.60
2018-07-25T21:27:51.360Z,85.40
2018-07-25T21:30:19.506Z,85.80
2018-07-25T21:32:48.229Z,85.70
2018-07-25T21:35:16.628Z,86.10
2018-07-25T21:37:46.276Z,86.90
2018-07-25T21:40:15.495Z,87.70
2018-07-25T21:42:44.061Z,88.30
2018-07-25T21:45:12.674Z,88.60
2018-07-25T21:47:40.999Z,89.00
2018-07-25T21:50:09.132Z,89.30
2018-07-25T21:52:38.680Z,89.20
2018-07-25T21:55:06.824Z,89.60
2018-07-25T21:57:35.571Z,89.10
2018-07-25T22:00:07.964Z,89.00
2018-07-25T22:02:36.346Z,89.10
2018-07-25T22:05:05.062Z,89.90
2018-07-25T22:07:34.146Z,90.00
2018-07-25T22:10:02.295Z,90.00
2018-07-25T22:12:31.378Z,90.10
2018-07-25T22:14:59.534Z,90.30
2018-07-25T22:17:27.689Z,90.50
2018-07-25T22:19:56.292Z,90.80
2018-07-25T22:22:24.464Z,91.40
2018-07-25T22:24:52.653Z,90.90
2018-07-25T22:27:21.457Z,91.00
2018-07-25T22:29:50.295Z,91.10
2018-07-25T22:32:18.712Z,91.40
2018-07-25T22:34:46.852Z,91.70
2018-07-25T22:37:15.056Z,91.60
2018-07-25T22:39:43.460Z,91.30
2018-07-25T22:42:12.564Z,91.30
2018-07-25T22:44:41.480Z,91.10
2018-07-25T22:47:10.826Z,91.10
2018-07-25T22:49:42.680Z,91.00
2018-07-25T22:52:10.799Z,90.70
2018-07-25T22:54:39.861Z,90.70
2018-07-25T22:57:07.999Z,90.90
2018-07-25T22:59:37.160Z,90.90
2018-07-25T23:02:07.339Z,91.10
2018-07-25T23:04:37.516Z,91.00
2018-07-25T23:07:06.792Z,90.90
2018-07-25T23:09:35.616Z,90.50
2018-07-25T23:12:04.712Z,90.50
2018-07-25T23:14:32.855Z,90.50
2018-07-25T23:17:02.319Z,91.00
2018-07-25T23:19:31.176Z,90.80
2018-07-25T23:24:27.269Z,90.80
2018-07-25T23:26:55.395Z,90.70
2018-07-25T23:29:24.085Z,91.40
2018-07-25T23:31:53.036Z,92.20
2018-07-25T23:34:22.034Z,92.30
2018-07-25T23:36:50.411Z,92.40
2018-07-25T23:39:18.544Z,92.20
2018-07-25T23:41:48.156Z,92.50
2018-07-25T23:44:16.305Z,92.00
2018-07-25T23:46:45.452Z,92.20
2018-07-25T23:49:13.564Z,92.40
2018-07-25T23:51:41.727Z,92.70
2018-07-25T23:54:09.861Z,93.10
2018-07-25T23:56:38.137Z,93.00
2018-07-25T23:59:06.244Z,93.10
